sensor_id;sensor_type;location;lat;lon;timestamp;temperature;humidity
69679;DHT22;56915;52.046;4.854;2023-03-26T00:01:27;7.80;99.90
69679;DHT22;56915;52.046;4.854;2023-03-26T00:03:55;7.80;99.90
69679;DHT22;56915;52.046;4.854;2023-03-26T00:06:25;7.80;99.90
69679;DHT22;56915;52.046;4.854;2023-03-26T00:08:53;7.80;99.90
69679;DHT22;56915;52.046;4.854;2023-03-26T00:11:22;7.80;99.90
69679;DHT22;56915;52.046;4.854;2023-03-26T00:13:49;7.90;99.90
69679;DHT22;56915;52.046;4.854;2023-03-26T00:16:19;7.90;99.90
69679;DHT22;56915;52.046;4.854;2023-03-26T00:18:46;7.90;99.90
69679;DHT22;56915;52.046;4.854;2023-03-26T00:21:16;7.80;99.90
69679;DHT22;56915;52.046;4.854;2023-03-26T00:23:43;7.90;99.90
69679;DHT22;56915;52.046;4.854;2023-03-26T00:26:10;7.90;99.90
69679;DHT22;56915;52.046;4.854;2023-03-26T00:28:39;7.80;99.90
69679;DHT22;56915;52.046;4.854;2023-03-26T00:31:09;7.90;99.90
69679;DHT22;56915;52.046;4.854;2023-03-26T00:33:37;7.80;99.90
69679;DHT22;56915;52.046;4.854;2023-03-26T00:36:09;7.80;99.90
69679;DHT22;56915;52.046;4.854;2023-03-26T00:38:37;7.80;99.90
69679;DHT22;56915;52.046;4.854;2023-03-26T00:41:10;7.80;99.90
69679;DHT22;56915;52.046;4.854;2023-03-26T00:43:50;7.80;99.90
69679;DHT22;56915;52.046;4.854;2023-03-26T00:46:17;7.90;99.90
69679;DHT22;56915;52.046;4.854;2023-03-26T00:48:45;7.90;99.90
69679;DHT22;56915;52.046;4.854;2023-03-26T00:51:14;7.90;99.90
69679;DHT22;56915;52.046;4.854;2023-03-26T00:53:43;7.90;99.90
69679;DHT22;56915;52.046;4.854;2023-03-26T00:56:10;7.90;99.90
69679;DHT22;56915;52.046;4.854;2023-03-26T00:58:37;8.00;99.90
69679;DHT22;56915;52.046;4.854;2023-03-26T01:01:11;8.00;99.90
69679;DHT22;56915;52.046;4.854;2023-03-26T01:03:43;8.00;99.90
69679;DHT22;56915;52.046;4.854;2023-03-26T01:06:32;8.00;99.90
69679;DHT22;56915;52.046;4.854;2023-03-26T01:09:10;8.10;99.90
69679;DHT22;56915;52.046;4.854;2023-03-26T01:11:39;8.10;99.90
69679;DHT22;56915;52.046;4.854;2023-03-26T01:14:10;8.10;99.90
69679;DHT22;56915;52.046;4.854;2023-03-26T01:21:51;8.00;99.90
69679;DHT22;56915;52.046;4.854;2023-03-26T01:24:18;8.10;99.90
69679;DHT22;56915;52.046;4.854;2023-03-26T01:29:53;8.10;99.90
69679;DHT22;56915;52.046;4.854;2023-03-26T01:38:03;8.10;99.90
69679;DHT22;56915;52.046;4.854;2023-03-26T01:45:50;8.10;99.90
69679;DHT22;56915;52.046;4.854;2023-03-26T01:48:18;8.10;99.90
69679;DHT22;56915;52.046;4.854;2023-03-26T01:50:45;8.00;99.90
69679;DHT22;56915;52.046;4.854;2023-03-26T01:53:12;8.00;99.90
69679;DHT22;56915;52.046;4.854;2023-03-26T01:58:38;7.80;99.90
69679;DHT22;56915;52.046;4.854;2023-03-26T02:04:13;7.80;99.90
69679;DHT22;56915;52.046;4.854;2023-03-26T02:06:56;7.70;99.90
69679;DHT22;56915;52.046;4.854;2023-03-26T02:09:30;7.60;99.90
69679;DHT22;56915;52.046;4.854;2023-03-26T02:12:02;7.60;99.90
69679;DHT22;56915;52.046;4.854;2023-03-26T02:14:30;7.80;99.90
69679;DHT22;56915;52.046;4.854;2023-03-26T02:16:58;7.90;99.90
69679;DHT22;56915;52.046;4.854;2023-03-26T02:19:25;7.90;99.90
69679;DHT22;56915;52.046;4.854;2023-03-26T02:21:52;8.00;99.90
69679;DHT22;56915;52.046;4.854;2023-03-26T02:24:25;8.10;99.90
69679;DHT22;56915;52.046;4.854;2023-03-26T02:26:52;8.10;99.90
69679;DHT22;56915;52.046;4.854;2023-03-26T02:29:19;8.20;99.90
69679;DHT22;56915;52.046;4.854;2023-03-26T02:31:47;8.20;99.90
69679;DHT22;56915;52.046;4.854;2023-03-26T02:34:15;8.30;99.90
69679;DHT22;56915;52.046;4.854;2023-03-26T02:36:42;8.40;99.90
69679;DHT22;56915;52.046;4.854;2023-03-26T02:39:09;8.40;99.90
69679;DHT22;56915;52.046;4.854;2023-03-26T02:41:37;8.50;99.90
69679;DHT22;56915;52.046;4.854;2023-03-26T02:44:04;8.50;99.90
69679;DHT22;56915;52.046;4.854;2023-03-26T02:46:32;8.50;99.90
69679;DHT22;56915;52.046;4.854;2023-03-26T02:48:59;8.50;99.90
69679;DHT22;56915;52.046;4.854;2023-03-26T02:51:26;8.50;99.90
69679;DHT22;56915;52.046;4.854;2023-03-26T02:53:54;8.50;99.90
69679;DHT22;56915;52.046;4.854;2023-03-26T02:56:21;8.50;99.90
69679;DHT22;56915;52.046;4.854;2023-03-26T02:58:48;8.50;99.90
69679;DHT22;56915;52.046;4.854;2023-03-26T03:01:14;8.50;99.90
69679;DHT22;56915;52.046;4.854;2023-03-26T03:03:44;8.50;99.90
69679;DHT22;56915;52.046;4.854;2023-03-26T03:06:13;8.50;99.90
69679;DHT22;56915;52.046;4.854;2023-03-26T03:08:42;8.50;99.90
69679;DHT22;56915;52.046;4.854;2023-03-26T03:11:16;8.50;99.90
69679;DHT22;56915;52.046;4.854;2023-03-26T03:13:43;8.50;99.90
69679;DHT22;56915;52.046;4.854;2023-03-26T03:16:10;8.60;99.90
69679;DHT22;56915;52.046;4.854;2023-03-26T03:18:37;8.60;99.90
69679;DHT22;56915;52.046;4.854;2023-03-26T03:21:04;8.60;99.90
69679;DHT22;56915;52.046;4.854;2023-03-26T03:23:31;8.60;99.90
69679;DHT22;56915;52.046;4.854;2023-03-26T03:25:58;8.70;99.90
69679;DHT22;56915;52.046;4.854;2023-03-26T03:28:25;8.60;99.90
69679;DHT22;56915;52.046;4.854;2023-03-26T03:30:52;8.70;99.90
69679;DHT22;56915;52.046;4.854;2023-03-26T03:33:19;8.70;99.90
69679;DHT22;56915;52.046;4.854;2023-03-26T03:35:47;8.70;99.90
69679;DHT22;56915;52.046;4.854;2023-03-26T03:38:16;8.70;99.90
69679;DHT22;56915;52.046;4.854;2023-03-26T03:40:43;8.70;99.90
69679;DHT22;56915;52.046;4.854;2023-03-26T03:43:10;8.70;99.90
69679;DHT22;56915;52.046;4.854;2023-03-26T03:45:36;8.70;99.90
69679;DHT22;56915;52.046;4.854;2023-03-26T03:48:03;8.70;99.90
69679;DHT22;56915;52.046;4.854;2023-03-26T03:50:30;8.70;99.90
69679;DHT22;56915;52.046;4.854;2023-03-26T03:53:01;8.80;99.90
69679;DHT22;56915;52.046;4.854;2023-03-26T03:55:28;8.80;99.90
69679;DHT22;56915;52.046;4.854;2023-03-26T03:57:55;8.80;99.90
69679;DHT22;56915;52.046;4.854;2023-03-26T04:00:24;8.80;99.90
69679;DHT22;56915;52.046;4.854;2023-03-26T04:02:50;8.80;99.90
69679;DHT22;56915;52.046;4.854;2023-03-26T04:05:20;8.90;99.90
69679;DHT22;56915;52.046;4.854;2023-03-26T04:07:47;8.90;99.90
69679;DHT22;56915;52.046;4.854;2023-03-26T04:10:14;8.90;99.90
69679;DHT22;56915;52.046;4.854;2023-03-26T04:12:41;8.90;99.90
69679;DHT22;56915;52.046;4.854;2023-03-26T04:15:08;8.90;99.90
69679;DHT22;56915;52.046;4.854;2023-03-26T04:17:39;8.90;99.90
69679;DHT22;56915;52.046;4.854;2023-03-26T04:20:12;8.90;99.90
69679;DHT22;56915;52.046;4.854;2023-03-26T04:22:42;9.00;99.90
69679;DHT22;56915;52.046;4.854;2023-03-26T04:25:11;9.00;99.90
69679;DHT22;56915;52.046;4.854;2023-03-26T04:27:39;9.00;99.90
69679;DHT22;56915;52.046;4.854;2023-03-26T04:30:09;8.90;99.90
69679;DHT22;56915;52.046;4.854;2023-03-26T04:32:40;8.90;99.90
69679;DHT22;56915;52.046;4.854;2023-03-26T04:35:12;8.90;99.90
69679;DHT22;56915;52.046;4.854;2023-03-26T04:37:41;8.90;99.90
69679;DHT22;56915;52.046;4.854;2023-03-26T04:40:15;8.90;99.90
69679;DHT22;56915;52.046;4.854;2023-03-26T04:42:42;8.90;99.90
69679;DHT22;56915;52.046;4.854;2023-03-26T04:45:17;8.90;99.90
69679;DHT22;56915;52.046;4.854;2023-03-26T04:47:49;8.90;99.90
69679;DHT22;56915;52.046;4.854;2023-03-26T04:50:16;8.80;99.90
69679;DHT22;56915;52.046;4.854;2023-03-26T04:52:43;8.80;99.90
69679;DHT22;56915;52.046;4.854;2023-03-26T04:55:24;8.80;99.90
69679;DHT22;56915;52.046;4.854;2023-03-26T04:57:56;8.70;99.90
69679;DHT22;56915;52.046;4.854;2023-03-26T05:00:25;8.70;99.90
69679;DHT22;56915;52.046;4.854;2023-03-26T05:02:53;8.60;99.90
69679;DHT22;56915;52.046;4.854;2023-03-26T05:05:22;8.60;99.90
69679;DHT22;56915;52.046;4.854;2023-03-26T05:07:49;8.60;99.90
69679;DHT22;56915;52.046;4.854;2023-03-26T05:10:16;8.60;99.90
69679;DHT22;56915;52.046;4.854;2023-03-26T05:12:45;8.50;99.90
69679;DHT22;56915;52.046;4.854;2023-03-26T05:15:13;8.50;99.90
69679;DHT22;56915;52.046;4.854;2023-03-26T05:17:41;8.40;99.90
69679;DHT22;56915;52.046;4.854;2023-03-26T05:20:21;8.40;99.90
69679;DHT22;56915;52.046;4.854;2023-03-26T05:22:49;8.30;99.90
69679;DHT22;56915;52.046;4.854;2023-03-26T05:25:17;8.30;99.90
69679;DHT22;56915;52.046;4.854;2023-03-26T05:27:44;8.30;99.90
69679;DHT22;56915;52.046;4.854;2023-03-26T05:30:14;8.30;99.90
69679;DHT22;56915;52.046;4.854;2023-03-26T05:32:41;8.30;99.90
69679;DHT22;56915;52.046;4.854;2023-03-26T05:35:09;8.30;99.90
69679;DHT22;56915;52.046;4.854;2023-03-26T05:37:35;8.20;99.90
69679;DHT22;56915;52.046;4.854;2023-03-26T05:40:06;8.20;99.90
69679;DHT22;56915;52.046;4.854;2023-03-26T05:42:37;8.20;99.90
69679;DHT22;56915;52.046;4.854;2023-03-26T05:45:06;8.20;99.90
69679;DHT22;56915;52.046;4.854;2023-03-26T05:47:34;8.20;99.90
69679;DHT22;56915;52.046;4.854;2023-03-26T05:50:01;8.30;99.90
69679;DHT22;56915;52.046;4.854;2023-03-26T05:52:27;8.30;99.90
69679;DHT22;56915;52.046;4.854;2023-03-26T05:54:55;8.30;99.90
69679;DHT22;56915;52.046;4.854;2023-03-26T05:57:22;8.30;99.90
69679;DHT22;56915;52.046;4.854;2023-03-26T05:59:49;8.30;99.90
69679;DHT22;56915;52.046;4.854;2023-03-26T06:02:16;8.30;99.90
69679;DHT22;56915;52.046;4.854;2023-03-26T06:04:43;8.40;99.90
69679;DHT22;56915;52.046;4.854;2023-03-26T06:07:11;8.30;99.90
69679;DHT22;56915;52.046;4.854;2023-03-26T06:09:39;8.40;99.90
69679;DHT22;56915;52.046;4.854;2023-03-26T06:12:08;8.40;99.90
69679;DHT22;56915;52.046;4.854;2023-03-26T06:14:35;8.40;99.90
69679;DHT22;56915;52.046;4.854;2023-03-26T06:17:02;8.40;99.90
69679;DHT22;56915;52.046;4.854;2023-03-26T06:19:29;8.40;99.90
69679;DHT22;56915;52.046;4.854;2023-03-26T06:21:56;8.40;99.90
69679;DHT22;56915;52.046;4.854;2023-03-26T06:24:23;8.40;99.90
69679;DHT22;56915;52.046;4.854;2023-03-26T06:26:50;8.40;99.90
69679;DHT22;56915;52.046;4.854;2023-03-26T06:29:17;8.40;99.90
69679;DHT22;56915;52.046;4.854;2023-03-26T06:31:44;8.50;99.90
69679;DHT22;56915;52.046;4.854;2023-03-26T06:34:11;8.50;99.90
69679;DHT22;56915;52.046;4.854;2023-03-26T06:36:38;8.50;99.90
69679;DHT22;56915;52.046;4.854;2023-03-26T06:39:05;8.50;99.90
69679;DHT22;56915;52.046;4.854;2023-03-26T06:41:34;8.50;99.90
69679;DHT22;56915;52.046;4.854;2023-03-26T06:44:02;8.60;99.90
69679;DHT22;56915;52.046;4.854;2023-03-26T06:46:28;8.70;99.90
69679;DHT22;56915;52.046;4.854;2023-03-26T06:48:55;8.70;99.90
69679;DHT22;56915;52.046;4.854;2023-03-26T06:51:22;8.80;99.90
69679;DHT22;56915;52.046;4.854;2023-03-26T06:53:49;8.80;99.90
69679;DHT22;56915;52.046;4.854;2023-03-26T06:56:16;8.90;99.90
69679;DHT22;56915;52.046;4.854;2023-03-26T06:58:43;9.00;99.90
69679;DHT22;56915;52.046;4.854;2023-03-26T07:01:09;9.00;99.90
69679;DHT22;56915;52.046;4.854;2023-03-26T07:03:36;9.10;99.90
69679;DHT22;56915;52.046;4.854;2023-03-26T07:06:04;9.20;99.90
69679;DHT22;56915;52.046;4.854;2023-03-26T07:08:30;9.20;99.90
69679;DHT22;56915;52.046;4.854;2023-03-26T07:10:57;9.20;99.90
69679;DHT22;56915;52.046;4.854;2023-03-26T07:13:24;9.30;99.90
69679;DHT22;56915;52.046;4.854;2023-03-26T07:15:51;9.30;99.90
69679;DHT22;56915;52.046;4.854;2023-03-26T07:18:18;9.30;99.90
69679;DHT22;56915;52.046;4.854;2023-03-26T07:20:48;9.40;99.90
69679;DHT22;56915;52.046;4.854;2023-03-26T07:23:17;9.40;99.90
69679;DHT22;56915;52.046;4.854;2023-03-26T07:25:46;9.50;99.90
69679;DHT22;56915;52.046;4.854;2023-03-26T07:28:29;9.50;99.90
69679;DHT22;56915;52.046;4.854;2023-03-26T07:36:30;9.80;99.90
69679;DHT22;56915;52.046;4.854;2023-03-26T07:41:51;10.00;99.90
69679;DHT22;56915;52.046;4.854;2023-03-26T07:44:38;10.10;99.90
69679;DHT22;56915;52.046;4.854;2023-03-26T07:47:35;10.20;99.90
69679;DHT22;56915;52.046;4.854;2023-03-26T07:50:02;10.30;99.90
69679;DHT22;56915;52.046;4.854;2023-03-26T07:52:29;10.30;99.90
69679;DHT22;56915;52.046;4.854;2023-03-26T07:54:56;10.40;99.90
69679;DHT22;56915;52.046;4.854;2023-03-26T08:00:43;10.70;99.90
69679;DHT22;56915;52.046;4.854;2023-03-26T08:03:49;10.80;99.90
69679;DHT22;56915;52.046;4.854;2023-03-26T08:06:22;10.90;99.90
69679;DHT22;56915;52.046;4.854;2023-03-26T08:09:20;10.80;99.90
69679;DHT22;56915;52.046;4.854;2023-03-26T08:12:00;10.80;99.90
69679;DHT22;56915;52.046;4.854;2023-03-26T08:17:21;10.60;99.90
69679;DHT22;56915;52.046;4.854;2023-03-26T08:20:00;10.50;99.90
69679;DHT22;56915;52.046;4.854;2023-03-26T08:22:44;10.50;99.90
69679;DHT22;56915;52.046;4.854;2023-03-26T08:25:30;10.40;99.90
69679;DHT22;56915;52.046;4.854;2023-03-26T08:30:34;10.20;99.90
69679;DHT22;56915;52.046;4.854;2023-03-26T08:35:37;10.20;99.90
69679;DHT22;56915;52.046;4.854;2023-03-26T08:38:11;10.30;99.90
69679;DHT22;56915;52.046;4.854;2023-03-26T08:51:57;10.80;99.90
69679;DHT22;56915;52.046;4.854;2023-03-26T08:54:51;10.90;99.90
69679;DHT22;56915;52.046;4.854;2023-03-26T09:12:39;10.90;99.90
69679;DHT22;56915;52.046;4.854;2023-03-26T09:30:00;10.10;99.90
69679;DHT22;56915;52.046;4.854;2023-03-26T09:37:57;9.00;99.90
69679;DHT22;56915;52.046;4.854;2023-03-26T09:40:43;8.90;99.90
69679;DHT22;56915;52.046;4.854;2023-03-26T09:43:35;8.80;99.90
69679;DHT22;56915;52.046;4.854;2023-03-26T10:02:44;8.60;99.90
69679;DHT22;56915;52.046;4.854;2023-03-26T10:11:13;8.90;99.90
69679;DHT22;56915;52.046;4.854;2023-03-26T10:21:48;8.90;99.90
69679;DHT22;56915;52.046;4.854;2023-03-26T10:24:27;8.90;99.90
69679;DHT22;56915;52.046;4.854;2023-03-26T10:27:11;9.00;99.90
69679;DHT22;56915;52.046;4.854;2023-03-26T10:29:59;9.00;99.90
69679;DHT22;56915;52.046;4.854;2023-03-26T10:38:04;9.10;99.90
69679;DHT22;56915;52.046;4.854;2023-03-26T10:52:33;8.80;99.90
69679;DHT22;56915;52.046;4.854;2023-03-26T10:55:11;8.70;99.90
69679;DHT22;56915;52.046;4.854;2023-03-26T11:00:20;8.60;99.90
69679;DHT22;56915;52.046;4.854;2023-03-26T11:03:10;8.50;99.90
69679;DHT22;56915;52.046;4.854;2023-03-26T11:05:57;8.40;99.90
69679;DHT22;56915;52.046;4.854;2023-03-26T11:12:06;8.40;99.90
69679;DHT22;56915;52.046;4.854;2023-03-26T11:17:06;8.50;99.90
69679;DHT22;56915;52.046;4.854;2023-03-26T11:25:41;8.50;99.90
69679;DHT22;56915;52.046;4.854;2023-03-26T11:34:17;8.40;99.90
69679;DHT22;56915;52.046;4.854;2023-03-26T11:36:50;8.30;99.90
69679;DHT22;56915;52.046;4.854;2023-03-26T11:39:40;8.30;99.90
69679;DHT22;56915;52.046;4.854;2023-03-26T11:42:12;8.20;99.90
69679;DHT22;56915;52.046;4.854;2023-03-26T11:44:53;8.00;99.90
69679;DHT22;56915;52.046;4.854;2023-03-26T11:47:27;7.90;99.90
69679;DHT22;56915;52.046;4.854;2023-03-26T11:49:58;7.90;99.90
69679;DHT22;56915;52.046;4.854;2023-03-26T11:52:26;7.90;99.90
69679;DHT22;56915;52.046;4.854;2023-03-26T11:54:53;7.90;99.90
69679;DHT22;56915;52.046;4.854;2023-03-26T11:57:33;7.90;99.90
69679;DHT22;56915;52.046;4.854;2023-03-26T12:00:05;8.00;99.90
69679;DHT22;56915;52.046;4.854;2023-03-26T12:02:45;8.10;99.90
69679;DHT22;56915;52.046;4.854;2023-03-26T12:07:46;8.30;99.90
69679;DHT22;56915;52.046;4.854;2023-03-26T12:10:31;8.50;99.90
69679;DHT22;56915;52.046;4.854;2023-03-26T12:13:01;8.60;99.90
69679;DHT22;56915;52.046;4.854;2023-03-26T12:15:29;8.80;99.90
69679;DHT22;56915;52.046;4.854;2023-03-26T12:18:18;9.00;99.90
69679;DHT22;56915;52.046;4.854;2023-03-26T12:20:46;9.40;99.90
69679;DHT22;56915;52.046;4.854;2023-03-26T12:26:16;9.80;99.90
69679;DHT22;56915;52.046;4.854;2023-03-26T12:28:46;9.80;99.90
69679;DHT22;56915;52.046;4.854;2023-03-26T12:31:13;9.90;99.90
69679;DHT22;56915;52.046;4.854;2023-03-26T12:34:03;9.80;99.90
69679;DHT22;56915;52.046;4.854;2023-03-26T12:36:32;9.80;99.90
69679;DHT22;56915;52.046;4.854;2023-03-26T12:39:25;9.90;99.90
69679;DHT22;56915;52.046;4.854;2023-03-26T12:42:33;10.00;99.10
69679;DHT22;56915;52.046;4.854;2023-03-26T12:45:38;10.10;96.00
69679;DHT22;56915;52.046;4.854;2023-03-26T12:48:08;10.30;98.20
69679;DHT22;56915;52.046;4.854;2023-03-26T13:01:30;10.60;93.40
69679;DHT22;56915;52.046;4.854;2023-03-26T13:04:21;10.50;94.30
69679;DHT22;56915;52.046;4.854;2023-03-26T13:07:00;10.50;91.30
69679;DHT22;56915;52.046;4.854;2023-03-26T13:09:35;10.50;90.30
69679;DHT22;56915;52.046;4.854;2023-03-26T13:12:06;10.50;91.40
69679;DHT22;56915;52.046;4.854;2023-03-26T13:15:20;10.50;89.10
69679;DHT22;56915;52.046;4.854;2023-03-26T13:18:14;10.40;83.10
69679;DHT22;56915;52.046;4.854;2023-03-26T13:23:29;10.10;82.50
69679;DHT22;56915;52.046;4.854;2023-03-26T13:28:50;10.00;77.20
69679;DHT22;56915;52.046;4.854;2023-03-26T13:31:46;9.90;76.70
69679;DHT22;56915;52.046;4.854;2023-03-26T13:34:28;9.90;77.50
69679;DHT22;56915;52.046;4.854;2023-03-26T13:37:13;10.00;75.40
69679;DHT22;56915;52.046;4.854;2023-03-26T13:42:49;10.10;73.10
69679;DHT22;56915;52.046;4.854;2023-03-26T13:48:41;10.10;70.30
69679;DHT22;56915;52.046;4.854;2023-03-26T13:51:14;10.20;72.50
69679;DHT22;56915;52.046;4.854;2023-03-26T13:53:54;10.20;70.60
69679;DHT22;56915;52.046;4.854;2023-03-26T13:56:29;10.20;68.10
69679;DHT22;56915;52.046;4.854;2023-03-26T13:59:05;10.10;66.40
69679;DHT22;56915;52.046;4.854;2023-03-26T14:01:39;10.10;67.60
69679;DHT22;56915;52.046;4.854;2023-03-26T14:07:14;10.20;67.70
69679;DHT22;56915;52.046;4.854;2023-03-26T14:14:57;10.70;67.30
69679;DHT22;56915;52.046;4.854;2023-03-26T14:17:27;10.80;65.60
69679;DHT22;56915;52.046;4.854;2023-03-26T14:39:45;10.70;57.30
69679;DHT22;56915;52.046;4.854;2023-03-26T14:42:49;10.50;56.60
69679;DHT22;56915;52.046;4.854;2023-03-26T14:53:31;10.50;57.80
69679;DHT22;56915;52.046;4.854;2023-03-26T14:56:39;10.50;55.90
69679;DHT22;56915;52.046;4.854;2023-03-26T15:11:22;10.40;54.20
69679;DHT22;56915;52.046;4.854;2023-03-26T15:14:18;10.30;55.00
69679;DHT22;56915;52.046;4.854;2023-03-26T15:26:10;9.70;55.10
69679;DHT22;56915;52.046;4.854;2023-03-26T15:43:11;9.40;54.40
69679;DHT22;56915;52.046;4.854;2023-03-26T15:51:49;9.20;54.80
69679;DHT22;56915;52.046;4.854;2023-03-26T15:57:29;9.00;53.80
69679;DHT22;56915;52.046;4.854;2023-03-26T16:02:41;8.80;54.10
69679;DHT22;56915;52.046;4.854;2023-03-26T16:05:28;8.80;55.20
69679;DHT22;56915;52.046;4.854;2023-03-26T16:10:56;8.70;54.20
69679;DHT22;56915;52.046;4.854;2023-03-26T16:18:36;8.60;52.90
69679;DHT22;56915;52.046;4.854;2023-03-26T16:26:53;8.50;51.90
69679;DHT22;56915;52.046;4.854;2023-03-26T16:29:26;8.60;52.10
69679;DHT22;56915;52.046;4.854;2023-03-26T16:37:35;8.70;51.80
69679;DHT22;56915;52.046;4.854;2023-03-26T16:51:26;8.70;53.10
69679;DHT22;56915;52.046;4.854;2023-03-26T16:54:21;8.70;53.50
69679;DHT22;56915;52.046;4.854;2023-03-26T16:57:27;8.80;52.00
69679;DHT22;56915;52.046;4.854;2023-03-26T17:03:31;8.50;52.10
69679;DHT22;56915;52.046;4.854;2023-03-26T17:09:00;8.20;52.80
69679;DHT22;56915;52.046;4.854;2023-03-26T17:14:17;8.00;53.40
69679;DHT22;56915;52.046;4.854;2023-03-26T17:17:02;7.90;54.10
69679;DHT22;56915;52.046;4.854;2023-03-26T17:19:41;7.70;53.40
69679;DHT22;56915;52.046;4.854;2023-03-26T17:22:12;7.90;53.30
69679;DHT22;56915;52.046;4.854;2023-03-26T17:24:54;8.00;53.10
69679;DHT22;56915;52.046;4.854;2023-03-26T17:36:43;7.80;50.70
69679;DHT22;56915;52.046;4.854;2023-03-26T17:39:20;7.60;51.10
69679;DHT22;56915;52.046;4.854;2023-03-26T17:41:50;7.30;50.90
69679;DHT22;56915;52.046;4.854;2023-03-26T17:44:53;7.20;51.40
69679;DHT22;56915;52.046;4.854;2023-03-26T17:47:42;7.10;51.30
69679;DHT22;56915;52.046;4.854;2023-03-26T17:50:14;7.10;51.50
69679;DHT22;56915;52.046;4.854;2023-03-26T17:53:01;7.00;51.60
69679;DHT22;56915;52.046;4.854;2023-03-26T17:55:32;6.90;51.00
69679;DHT22;56915;52.046;4.854;2023-03-26T17:58:02;6.80;51.30
69679;DHT22;56915;52.046;4.854;2023-03-26T18:00:34;6.80;52.20
69679;DHT22;56915;52.046;4.854;2023-03-26T18:03:13;6.80;52.70
69679;DHT22;56915;52.046;4.854;2023-03-26T18:05:45;6.70;53.10
69679;DHT22;56915;52.046;4.854;2023-03-26T18:16:52;6.70;55.40
69679;DHT22;56915;52.046;4.854;2023-03-26T18:19:21;6.70;56.40
69679;DHT22;56915;52.046;4.854;2023-03-26T18:21:51;6.60;58.00
69679;DHT22;56915;52.046;4.854;2023-03-26T18:24:30;6.60;58.00
69679;DHT22;56915;52.046;4.854;2023-03-26T18:27:06;6.50;58.30
69679;DHT22;56915;52.046;4.854;2023-03-26T18:29:45;6.40;58.70
69679;DHT22;56915;52.046;4.854;2023-03-26T18:34:46;6.40;59.70
69679;DHT22;56915;52.046;4.854;2023-03-26T18:37:22;6.40;60.80
69679;DHT22;56915;52.046;4.854;2023-03-26T18:42:47;6.30;61.10
69679;DHT22;56915;52.046;4.854;2023-03-26T18:45:33;6.30;62.50
69679;DHT22;56915;52.046;4.854;2023-03-26T18:48:16;6.20;62.60
69679;DHT22;56915;52.046;4.854;2023-03-26T18:50:46;6.10;63.60
69679;DHT22;56915;52.046;4.854;2023-03-26T18:53:19;6.10;64.20
69679;DHT22;56915;52.046;4.854;2023-03-26T18:55:48;6.10;65.00
69679;DHT22;56915;52.046;4.854;2023-03-26T18:58:32;6.10;65.90
69679;DHT22;56915;52.046;4.854;2023-03-26T19:01:02;6.20;66.20
69679;DHT22;56915;52.046;4.854;2023-03-26T19:03:33;6.20;66.50
69679;DHT22;56915;52.046;4.854;2023-03-26T19:06:02;6.20;66.60
69679;DHT22;56915;52.046;4.854;2023-03-26T19:08:30;6.20;66.50
69679;DHT22;56915;52.046;4.854;2023-03-26T19:10:58;6.20;65.70
69679;DHT22;56915;52.046;4.854;2023-03-26T19:13:31;6.30;65.20
69679;DHT22;56915;52.046;4.854;2023-03-26T19:16:06;6.30;64.50
69679;DHT22;56915;52.046;4.854;2023-03-26T19:18:35;6.30;63.50
69679;DHT22;56915;52.046;4.854;2023-03-26T19:21:09;6.30;62.80
69679;DHT22;56915;52.046;4.854;2023-03-26T19:23:38;6.20;62.80
69679;DHT22;56915;52.046;4.854;2023-03-26T19:26:08;6.10;61.90
69679;DHT22;56915;52.046;4.854;2023-03-26T19:28:39;6.00;61.10
69679;DHT22;56915;52.046;4.854;2023-03-26T19:33:42;5.80;61.40
69679;DHT22;56915;52.046;4.854;2023-03-26T19:38:43;5.60;62.10
69679;DHT22;56915;52.046;4.854;2023-03-26T19:41:21;5.60;62.60
69679;DHT22;56915;52.046;4.854;2023-03-26T19:43:53;5.70;62.90
69679;DHT22;56915;52.046;4.854;2023-03-26T19:46:21;5.70;63.40
69679;DHT22;56915;52.046;4.854;2023-03-26T19:48:51;5.80;62.80
69679;DHT22;56915;52.046;4.854;2023-03-26T19:51:34;5.80;62.80
69679;DHT22;56915;52.046;4.854;2023-03-26T19:54:13;5.80;62.60
69679;DHT22;56915;52.046;4.854;2023-03-26T19:56:41;5.70;62.20
69679;DHT22;56915;52.046;4.854;2023-03-26T19:59:09;5.70;62.00
69679;DHT22;56915;52.046;4.854;2023-03-26T20:01:35;5.60;62.20
69679;DHT22;56915;52.046;4.854;2023-03-26T20:04:04;5.50;62.50
69679;DHT22;56915;52.046;4.854;2023-03-26T20:06:32;5.40;62.90
69679;DHT22;56915;52.046;4.854;2023-03-26T20:09:10;5.40;63.30
69679;DHT22;56915;52.046;4.854;2023-03-26T20:11:38;5.30;63.40
69679;DHT22;56915;52.046;4.854;2023-03-26T20:14:12;5.30;63.70
69679;DHT22;56915;52.046;4.854;2023-03-26T20:16:40;5.30;63.90
69679;DHT22;56915;52.046;4.854;2023-03-26T20:19:10;5.20;64.00
69679;DHT22;56915;52.046;4.854;2023-03-26T20:21:37;5.20;64.60
69679;DHT22;56915;52.046;4.854;2023-03-26T20:24:15;5.10;64.30
69679;DHT22;56915;52.046;4.854;2023-03-26T20:26:46;5.10;64.50
69679;DHT22;56915;52.046;4.854;2023-03-26T20:29:14;5.00;64.70
69679;DHT22;56915;52.046;4.854;2023-03-26T20:31:41;5.00;65.00
69679;DHT22;56915;52.046;4.854;2023-03-26T20:34:20;4.90;65.40
69679;DHT22;56915;52.046;4.854;2023-03-26T20:36:49;4.90;65.90
69679;DHT22;56915;52.046;4.854;2023-03-26T20:39:24;4.70;66.30
69679;DHT22;56915;52.046;4.854;2023-03-26T20:41:53;4.70;67.20
69679;DHT22;56915;52.046;4.854;2023-03-26T20:44:20;4.60;67.20
69679;DHT22;56915;52.046;4.854;2023-03-26T20:46:48;4.50;67.60
69679;DHT22;56915;52.046;4.854;2023-03-26T20:49:16;4.50;68.30
69679;DHT22;56915;52.046;4.854;2023-03-26T20:51:44;4.40;68.70
69679;DHT22;56915;52.046;4.854;2023-03-26T20:54:23;4.40;70.00
69679;DHT22;56915;52.046;4.854;2023-03-26T20:56:52;4.40;70.70
69679;DHT22;56915;52.046;4.854;2023-03-26T20:59:25;4.30;71.10
69679;DHT22;56915;52.046;4.854;2023-03-26T21:01:55;4.30;72.00
69679;DHT22;56915;52.046;4.854;2023-03-26T21:04:23;4.30;72.60
69679;DHT22;56915;52.046;4.854;2023-03-26T21:06:51;4.30;74.20
69679;DHT22;56915;52.046;4.854;2023-03-26T21:09:26;4.30;74.80
69679;DHT22;56915;52.046;4.854;2023-03-26T21:12:04;4.40;75.30
69679;DHT22;56915;52.046;4.854;2023-03-26T21:14:36;4.40;75.80
69679;DHT22;56915;52.046;4.854;2023-03-26T21:17:18;4.50;75.80
69679;DHT22;56915;52.046;4.854;2023-03-26T21:19:46;4.40;75.70
69679;DHT22;56915;52.046;4.854;2023-03-26T21:22:34;4.40;76.70
69679;DHT22;56915;52.046;4.854;2023-03-26T21:28:14;4.30;80.20
69679;DHT22;56915;52.046;4.854;2023-03-26T21:30:45;4.30;81.40
69679;DHT22;56915;52.046;4.854;2023-03-26T21:33:13;4.30;82.20
69679;DHT22;56915;52.046;4.854;2023-03-26T21:35:40;4.30;81.90
69679;DHT22;56915;52.046;4.854;2023-03-26T21:38:09;4.30;83.00
69679;DHT22;56915;52.046;4.854;2023-03-26T21:40:36;4.30;83.90
69679;DHT22;56915;52.046;4.854;2023-03-26T21:43:10;4.30;84.80
69679;DHT22;56915;52.046;4.854;2023-03-26T21:45:37;4.30;84.50
69679;DHT22;56915;52.046;4.854;2023-03-26T21:48:05;4.30;84.10
69679;DHT22;56915;52.046;4.854;2023-03-26T21:50:32;4.20;84.00
69679;DHT22;56915;52.046;4.854;2023-03-26T21:52:59;4.10;84.40
69679;DHT22;56915;52.046;4.854;2023-03-26T21:55:27;4.00;84.40
69679;DHT22;56915;52.046;4.854;2023-03-26T22:00:58;3.90;87.10
69679;DHT22;56915;52.046;4.854;2023-03-26T22:03:27;3.80;88.90
69679;DHT22;56915;52.046;4.854;2023-03-26T22:06:08;3.90;89.40